Montrose Regional Airport
KMTJ : now visible

Airfield :











YOU CAN JOIN US ON...

 
LOGIN :

Register | Disclaimer

   EN    FR    IT 

 









Legend :    VFR   Marginal VFR   IFR   Intensive IFR   Very Intensive IFR
Visi :
Ceiling :
>= 8 km
>= 3000ft
5 to 8 km
1000 to 3000 ft
1500m to 5 km
500 to 1000 ft
800 to 1500m
200 to 500 ft
< 800m
< 200 ft
Symbols :   Thunderstorms  Fog  Heavy snow  Heavy precipitations  Wind > 20 kt






- Airport Elevation : 5759 ft


KMTJ - Montrose Regional

CURRENT METAR :
  • 071453Z AUTO 14003KT 10SM CLR 11/04 A3042 RMK AO2 SLP259 T01060039 51012

EXPIRED METARs :
  • 071353Z AUTO 18004KT 10SM CLR 07/03 A3041 RMK AO2 SLP258 T00720033
  • 071253Z AUTO 15006KT 10SM CLR 07/03 A3040 RMK AO2 SLP248 T00720028

TAF KMTJ
Valid from the 07 at 12:00 until the 08 at 12:00 UTC


071127Z 0712/0812 13007KT P6SM SKC
FM071900 33008KT P6SM SKC
FM080100 17006KT P6SM FEW120
FM080600 15006KT P6SM SKC
KZDV FIR / North America



MET'MAP, your aeronautical weather chart ! - Copyright ORBIFLY December 2007 - Disclaimer

ORBIFLY MET'MAP TEAM :

Programming & Development : Alexandra Zaïnal
Original concept : Baudouin d'Aumeries
Technical & hardware support : Manuel Goepfert
Assistance : Marc-Olivier Méhu




SOURCES & CREDITS :

   NOAA       Earth
Advisory